Time;durP1;ratioP1;P1;durP2;ratioP2;P2;SDS_P1;SDS_P2;PMS_P1;PMS_P2;Temp;Humidity;BMP_temperature;BMP_pressure;BME280_temperature;BME280_humidity;BME280_pressure;Samples;Min_cycle;Max_cycle;Signal;HPM_P1;HPM_P2
2024/02/09 00:00:21;;;;;;;37.00;20.00;;;;;;;2.62;75.12;98639.08;134215;1263;108470;-79
2024/02/09 00:03:47;;;;;;;35.30;18.80;;;;;;;2.67;75.22;98634.58;134213;1263;110743;-80
2024/02/09 00:06:53;;;;;;;37.40;19.50;;;;;;;2.68;75.21;98631.87;134232;1263;106919;-79
2024/02/09 00:09:58;;;;;;;28.50;14.20;;;;;;;2.67;75.29;98627.38;134225;1263;108766;-80
2024/02/09 00:13:05;;;;;;;35.40;19.80;;;;;;;2.63;75.34;98624.92;134209;1263;107670;-80
2024/02/09 00:16:10;;;;;;;34.90;20.10;;;;;;;2.63;75.17;98630.70;134210;1263;108697;-80
2024/02/09 00:19:16;;;;;;;38.50;19.70;;;;;;;2.60;75.37;98634.93;134210;1263;107436;-80
2024/02/09 00:22:22;;;;;;;37.80;20.00;;;;;;;2.58;75.44;98636.85;134230;1263;109451;-80
2024/02/09 00:25:29;;;;;;;39.50;20.80;;;;;;;2.56;75.54;98635.27;134217;1263;106455;-79
2024/02/09 00:28:35;;;;;;;35.70;20.20;;;;;;;2.50;75.70;98635.09;134228;1263;108795;-79
2024/02/09 00:31:42;;;;;;;36.30;20.30;;;;;;;2.49;75.69;98641.23;134196;1263;107304;-80
2024/02/09 00:34:47;;;;;;;24.70;15.10;;;;;;;2.49;75.85;98635.19;134222;1263;109003;-80
2024/02/09 00:37:55;;;;;;;31.80;17.90;;;;;;;2.54;75.75;98638.09;134258;1263;106696;-79
2024/02/09 00:41:05;;;;;;;32.80;18.80;;;;;;;2.59;75.75;98638.30;134218;1263;108794;-79
2024/02/09 00:44:10;;;;;;;32.00;18.30;;;;;;;2.62;75.79;98637.02;134217;1263;107724;-79
2024/02/09 00:47:16;;;;;;;34.00;19.00;;;;;;;2.62;75.67;98638.23;134222;1263;107682;-80
2024/02/09 00:50:22;;;;;;;31.10;17.40;;;;;;;2.60;75.77;98636.29;134255;1263;107264;-79
2024/02/09 00:53:27;;;;;;;37.50;19.10;;;;;;;2.58;75.71;98638.23;134239;1263;108655;-79
2024/02/09 00:56:33;;;;;;;34.80;19.00;;;;;;;2.57;75.84;98635.88;134242;1263;107714;-79
2024/02/09 00:59:39;;;;;;;33.20;17.30;;;;;;;2.55;75.86;98634.83;134224;1263;108376;-79
2024/02/09 01:02:45;;;;;;;29.40;16.80;;;;;;;2.52;75.90;98634.94;134249;1263;107531;-79
2024/02/09 01:05:50;;;;;;;29.20;16.20;;;;;;;2.49;75.92;98631.90;134251;1263;108573;-79
2024/02/09 01:08:56;;;;;;;29.40;14.50;;;;;;;2.46;76.13;98629.66;134218;1263;108649;-79
2024/02/09 02:46:21;;;;;;;14.00;8.70;;;;;;;2.42;77.19;98584.13;134198;1263;108767;-80
2024/02/09 03:06:19;;;;;;;13.20;6.90;;;;;;;2.61;77.16;98581.81;134219;1264;108158;-80
2024/02/09 03:09:24;;;;;;;12.70;7.60;;;;;;;2.58;77.12;98588.54;134203;1263;108735;-80
2024/02/09 03:12:29;;;;;;;11.20;6.90;;;;;;;2.55;77.33;98591.10;134251;1263;107768;-80
2024/02/09 03:15:35;;;;;;;12.30;7.00;;;;;;;2.55;77.44;98587.63;134222;1263;106930;-80
2024/02/09 03:18:41;;;;;;;11.60;6.60;;;;;;;2.54;77.57;98590.67;134207;1263;108513;-80
2024/02/09 03:21:46;;;;;;;12.60;6.90;;;;;;;2.52;77.46;98588.38;134239;1263;108619;-79
2024/02/09 03:24:52;;;;;;;11.10;7.00;;;;;;;2.50;77.62;98586.64;134233;1263;107224;-79
2024/02/09 03:27:57;;;;;;;9.70;6.10;;;;;;;2.46;77.60;98584.58;134215;1263;108640;-79
2024/02/09 03:31:03;;;;;;;11.50;6.50;;;;;;;2.43;77.66;98589.60;134216;1263;107843;-79
2024/02/09 03:34:09;;;;;;;9.30;6.00;;;;;;;2.43;77.73;98585.89;134249;1263;106906;-79
2024/02/09 03:37:15;;;;;;;14.00;7.70;;;;;;;2.47;77.80;98587.10;134267;1263;108798;-79
2024/02/09 03:40:20;;;;;;;11.40;7.70;;;;;;;2.51;77.83;98589.54;134204;1263;106373;-79
2024/02/09 03:43:26;;;;;;;11.90;7.80;;;;;;;2.53;77.96;98597.08;134211;1263;107760;-79
2024/02/09 03:46:32;;;;;;;11.10;7.00;;;;;;;2.54;77.89;98601.38;134046;1263;227743;-80
2024/02/09 03:49:38;;;;;;;10.60;6.60;;;;;;;2.52;77.92;98604.61;134231;1263;107699;-80
2024/02/09 03:52:44;;;;;;;9.00;5.80;;;;;;;2.49;77.82;98605.36;134212;1263;107105;-80
2024/02/09 03:55:50;;;;;;;12.20;7.10;;;;;;;2.48;77.87;98600.37;134239;1263;107108;-80
2024/02/09 03:58:56;;;;;;;12.40;7.50;;;;;;;2.46;78.06;98600.02;134209;1263;106798;-80
2024/02/09 04:02:04;;;;;;;11.30;6.90;;;;;;;2.44;78.13;98594.13;134216;1263;108514;-80
2024/02/09 04:05:09;;;;;;;11.00;6.40;;;;;;;2.40;78.16;98589.89;134168;1263;106617;-80
2024/02/09 04:08:15;;;;;;;12.00;7.00;;;;;;;2.39;78.16;98589.58;134214;1263;109044;-80
2024/02/09 04:11:28;;;;;;;11.00;7.00;;;;;;;2.39;78.33;98583.30;134201;1263;106866;-80
2024/02/09 04:14:34;;;;;;;10.20;6.70;;;;;;;2.40;78.24;98575.35;134208;1263;106813;-80
2024/02/09 04:17:39;;;;;;;14.30;8.40;;;;;;;2.43;78.44;98568.88;134187;1263;108441;-80
2024/02/09 04:20:45;;;;;;;14.60;9.20;;;;;;;2.46;78.37;98567.02;134239;1263;106695;-80
2024/02/09 04:23:51;;;;;;;16.50;9.20;;;;;;;2.46;78.34;98571.05;134261;1263;108857;-80
2024/02/09 04:26:59;;;;;;;17.40;10.40;;;;;;;2.44;78.26;98564.77;134227;1263;108473;-79
2024/02/09 04:30:05;;;;;;;17.80;10.60;;;;;;;2.43;78.61;98559.44;134216;1263;107018;-79
2024/02/09 04:33:11;;;;;;;19.40;11.60;;;;;;;2.41;78.57;98552.09;134227;1263;107840;-79
2024/02/09 04:36:17;;;;;;;18.50;11.10;;;;;;;2.36;78.51;98552.71;134247;1263;107456;-79
2024/02/09 04:39:22;;;;;;;18.30;11.40;;;;;;;2.32;78.62;98544.08;134228;1263;106506;-80
2024/02/09 04:42:28;;;;;;;19.30;11.60;;;;;;;2.28;78.51;98544.67;134234;1263;108696;-79
2024/02/09 04:45:34;;;;;;;21.20;12.30;;;;;;;2.24;78.65;98548.17;134233;1263;107638;-79
2024/02/09 04:48:40;;;;;;;27.60;14.30;;;;;;;2.20;78.74;98558.16;134210;1263;106536;-80
2024/02/09 04:51:47;;;;;;;26.80;14.00;;;;;;;2.18;78.81;98567.02;134212;1263;109553;-79
2024/02/09 04:54:52;;;;;;;18.40;10.70;;;;;;;2.21;78.82;98570.25;134230;1263;108312;-79
2024/02/09 04:57:58;;;;;;;31.20;15.90;;;;;;;2.23;79.02;98563.35;134232;1263;105845;-80
2024/02/09 05:01:04;;;;;;;24.10;14.10;;;;;;;2.30;79.12;98566.91;134241;1263;108570;-79
2024/02/09 05:04:12;;;;;;;29.90;16.30;;;;;;;2.36;79.07;98566.05;134198;1263;106475;-80
2024/02/09 05:07:18;;;;;;;27.30;15.00;;;;;;;2.38;79.17;98564.97;134188;1263;106210;-79
2024/02/09 05:10:23;;;;;;;31.30;19.30;;;;;;;2.39;79.00;98559.32;134256;1263;108783;-79
2024/02/09 05:13:29;;;;;;;31.70;17.90;;;;;;;2.35;79.07;98560.33;134237;1263;106615;-79
2024/02/09 05:16:38;;;;;;;28.50;15.90;;;;;;;2.33;79.11;98565.80;134227;1263;108716;-79
2024/02/09 05:19:44;;;;;;;34.20;18.90;;;;;;;2.33;79.15;98562.25;134197;1263;106641;-79
2024/02/09 05:22:49;;;;;;;28.90;16.10;;;;;;;2.33;79.30;98558.38;134210;1263;107593;-79
2024/02/09 05:25:55;;;;;;;29.20;16.00;;;;;;;2.32;79.18;98549.40;134225;1263;108737;-79
2024/02/09 05:29:02;;;;;;;23.80;14.20;;;;;;;2.31;79.41;98551.35;134209;1264;107821;-80
2024/02/09 05:32:10;;;;;;;60.90;29.40;;;;;;;2.37;79.68;98550.66;134202;1263;108611;-79
2024/02/09 05:35:16;;;;;;;50.60;24.00;;;;;;;2.43;79.33;98542.24;134191;1263;108606;-79
2024/02/09 05:38:21;;;;;;;39.80;19.60;;;;;;;2.48;79.35;98536.52;134230;1263;107115;-79
2024/02/09 05:41:27;;;;;;;36.50;17.80;;;;;;;2.51;79.34;98536.52;134216;1263;108716;-80
2024/02/09 05:44:33;;;;;;;18.60;10.60;;;;;;;2.55;79.44;98544.09;134209;1263;107809;-80
2024/02/09 05:47:39;;;;;;;34.30;15.20;;;;;;;2.52;79.51;98547.17;134212;1263;108763;-79
2024/02/09 05:50:45;;;;;;;23.20;12.20;;;;;;;2.50;79.39;98551.39;134196;1263;106787;-79
2024/02/09 05:53:51;;;;;;;18.50;9.50;;;;;;;2.47;79.60;98543.78;134208;1263;107689;-79
2024/02/09 05:56:56;;;;;;;14.40;8.30;;;;;;;2.42;79.52;98544.12;134209;1263;108730;-79
2024/02/09 06:00:03;;;;;;;16.00;9.10;;;;;;;2.37;79.61;98542.80;134242;1263;108659;-79
2024/02/09 06:03:10;;;;;;;18.00;10.10;;;;;;;2.31;79.73;98545.60;134201;1263;108659;-79
2024/02/09 06:06:18;;;;;;;16.10;8.70;;;;;;;2.28;80.05;98541.52;134203;1263;106754;-79
2024/02/09 06:09:24;;;;;;;16.90;8.90;;;;;;;2.30;80.02;98540.09;134228;1263;107066;-79
2024/02/09 06:12:32;;;;;;;15.00;8.80;;;;;;;2.31;80.17;98538.23;134190;1263;108730;-79
2024/02/09 06:15:38;;;;;;;14.80;8.90;;;;;;;2.34;80.19;98545.71;134234;1263;108850;-79
2024/02/09 06:18:45;;;;;;;14.30;9.30;;;;;;;2.37;80.01;98548.55;134208;1263;108867;-79
2024/02/09 06:21:50;;;;;;;16.00;9.50;;;;;;;2.42;80.17;98542.02;134212;1263;106597;-79
2024/02/09 06:24:57;;;;;;;14.30;8.80;;;;;;;2.42;80.16;98543.56;134258;1263;106567;-79
2024/02/09 06:28:03;;;;;;;13.70;8.00;;;;;;;2.36;80.05;98541.11;134238;1263;108620;-79
2024/02/09 06:31:08;;;;;;;14.00;8.50;;;;;;;2.31;80.32;98545.90;134227;1263;106739;-79
2024/02/09 06:34:14;;;;;;;14.60;8.50;;;;;;;2.30;80.33;98544.78;134202;1263;107766;-78
2024/02/09 06:37:19;;;;;;;15.90;8.90;;;;;;;2.30;80.38;98550.73;134215;1263;108611;-77
2024/02/09 06:40:25;;;;;;;13.40;7.50;;;;;;;2.31;80.50;98554.38;134219;1263;106680;-78
2024/02/09 06:43:31;;;;;;;13.80;7.80;;;;;;;2.33;80.72;98551.95;134223;1263;108363;-78
2024/02/09 06:46:37;;;;;;;14.00;8.00;;;;;;;2.38;80.57;98548.63;134235;1263;108657;-78
2024/02/09 06:49:45;;;;;;;11.60;7.50;;;;;;;2.41;80.59;98543.16;134200;1263;108365;-79
2024/02/09 06:52:51;;;;;;;11.90;7.70;;;;;;;2.40;80.45;98542.17;134223;1263;108632;-77
2024/02/09 06:55:56;;;;;;;12.60;8.30;;;;;;;2.41;80.51;98539.27;134234;1263;107714;-78
2024/02/09 06:59:04;;;;;;;12.90;8.40;;;;;;;2.39;80.52;98537.19;134199;1263;108347;-78
2024/02/09 07:02:10;;;;;;;13.40;8.40;;;;;;;2.39;80.71;98535.58;134223;1263;108599;-78
2024/02/09 07:05:19;;;;;;;17.70;9.20;;;;;;;2.39;80.78;98526.48;134211;1263;107756;-78
2024/02/09 07:08:30;;;;;;;16.30;9.10;;;;;;;2.42;80.80;98521.98;134220;1263;105791;-78
2024/02/09 07:11:35;;;;;;;10.90;6.60;;;;;;;2.46;80.99;98520.73;134228;1263;107558;-78
2024/02/09 07:14:41;;;;;;;11.40;7.80;;;;;;;2.49;80.78;98522.16;134200;1263;108743;-77
2024/02/09 07:17:47;;;;;;;11.30;7.40;;;;;;;2.53;80.94;98516.59;134217;1263;108719;-78
2024/02/09 07:20:54;;;;;;;11.70;7.70;;;;;;;2.60;80.98;98511.36;134201;1264;107808;-78
2024/02/09 07:23:59;;;;;;;12.60;8.80;;;;;;;2.65;80.81;98513.29;134217;1263;107064;-77
2024/02/09 07:27:05;;;;;;;13.00;8.70;;;;;;;2.67;80.92;98514.46;134240;1263;108619;-78
2024/02/09 07:30:15;;;;;;;10.00;7.10;;;;;;;2.69;80.65;98521.68;134214;1263;108679;-78
2024/02/09 07:33:21;;;;;;;12.30;7.70;;;;;;;2.68;80.76;98520.36;134259;1262;108695;-78
2024/02/09 07:36:28;;;;;;;13.90;7.50;;;;;;;2.64;80.79;98511.85;134257;1263;107772;-77
2024/02/09 07:39:34;;;;;;;11.20;7.00;;;;;;;2.64;81.02;98520.09;134262;1263;106685;-78
2024/02/09 07:42:39;;;;;;;13.60;7.30;;;;;;;2.67;81.10;98522.89;134238;1263;108474;-78
2024/02/09 07:45:45;;;;;;;11.40;6.80;;;;;;;2.76;81.17;98521.90;134182;1263;106259;-77
2024/02/09 07:48:51;;;;;;;9.60;6.10;;;;;;;2.84;80.86;98512.36;134233;1263;106684;-78
2024/02/09 07:51:58;;;;;;;8.70;5.30;;;;;;;2.88;80.99;98508.83;134215;1263;108691;-79
2024/02/09 07:55:03;;;;;;;11.40;6.40;;;;;;;2.90;80.86;98508.80;134181;1265;107644;-79
2024/02/09 07:58:09;;;;;;;9.30;5.70;;;;;;;2.92;80.84;98503.16;134132;1264;108651;-79
2024/02/09 08:01:14;;;;;;;10.60;6.20;;;;;;;2.91;80.67;98499.54;134160;1263;106369;-78
2024/02/09 08:04:20;;;;;;;17.90;12.00;;;;;;;2.93;80.79;98496.20;134210;1263;107059;-78
2024/02/09 08:07:26;;;;;;;10.40;6.70;;;;;;;2.93;80.73;98495.31;134179;1264;108700;-81
2024/02/09 08:10:35;;;;;;;9.40;6.00;;;;;;;2.90;80.87;98492.15;134080;1263;106978;-78
2024/02/09 08:13:41;;;;;;;11.20;5.70;;;;;;;2.87;80.99;98489.91;134190;1264;108498;-78
2024/02/09 08:16:46;;;;;;;14.30;7.80;;;;;;;2.91;80.86;98488.17;134210;1264;107923;-78
2024/02/09 08:19:52;;;;;;;18.20;9.90;;;;;;;2.95;80.81;98483.91;134209;1263;108822;-78
2024/02/09 08:22:58;;;;;;;36.10;26.30;;;;;;;2.97;80.96;98478.68;134207;1264;109472;-78
2024/02/09 08:26:03;;;;;;;19.70;10.60;;;;;;;2.99;80.92;98476.83;134208;1263;109468;-78
2024/02/09 08:29:09;;;;;;;52.50;26.10;;;;;;;3.02;80.95;98471.27;134220;1263;107929;-78
2024/02/09 08:32:17;;;;;;;72.10;37.20;;;;;;;3.06;80.80;98476.19;134240;1263;107721;-78
2024/02/09 08:35:22;;;;;;;41.00;25.10;;;;;;;3.05;80.79;98472.88;134234;1263;107731;-79
2024/02/09 08:38:28;;;;;;;20.60;11.20;;;;;;;3.06;80.87;98469.66;134252;1263;107831;-78
2024/02/09 08:41:34;;;;;;;24.20;10.90;;;;;;;3.00;80.81;98466.08;134176;1263;108807;-78
2024/02/09 08:44:40;;;;;;;31.60;11.70;;;;;;;2.99;81.25;98463.02;134090;1263;106302;-78
2024/02/09 08:47:46;;;;;;;42.30;15.10;;;;;;;3.02;80.98;98463.42;134204;1263;106136;-78
2024/02/09 08:50:51;;;;;;;42.40;17.10;;;;;;;3.06;81.19;98458.09;134209;1263;107814;-78
2024/02/09 08:53:58;;;;;;;25.70;11.10;;;;;;;3.14;81.13;98452.17;134134;1263;107689;-82
2024/02/09 08:57:06;;;;;;;23.90;12.20;;;;;;;3.20;81.00;98449.37;134134;1264;107767;-80
2024/02/09 09:00:13;;;;;;;19.70;11.10;;;;;;;3.23;81.08;98443.47;134215;1264;108684;-81
2024/02/09 09:03:19;;;;;;;28.80;15.20;;;;;;;3.20;81.01;98440.38;134224;1264;108560;-80
2024/02/09 09:06:25;;;;;;;28.70;14.30;;;;;;;3.19;80.99;98437.46;134218;1264;107878;-80
2024/02/09 09:09:31;;;;;;;27.30;13.00;;;;;;;3.18;80.81;98434.98;134208;1263;108691;-80
2024/02/09 09:12:38;;;;;;;23.60;11.50;;;;;;;3.13;80.96;98433.98;134154;1264;107279;-82
2024/02/09 09:15:43;;;;;;;23.60;12.10;;;;;;;3.09;80.97;98436.58;134101;1263;108065;-78
2024/02/09 09:18:50;;;;;;;14.80;8.40;;;;;;;3.06;81.28;98435.02;134076;1263;110152;-79
2024/02/09 09:21:55;;;;;;;15.10;8.70;;;;;;;3.11;80.96;98439.37;134207;1263;109046;-80
2024/02/09 09:25:03;;;;;;;13.40;7.90;;;;;;;3.14;81.11;98439.89;134275;1263;108668;-79
2024/02/09 09:28:09;;;;;;;10.80;7.40;;;;;;;3.17;81.05;98441.73;134270;1263;108698;-78
2024/02/09 09:31:15;;;;;;;17.20;8.90;;;;;;;3.14;81.15;98435.15;134272;1263;108650;-78
2024/02/09 09:34:21;;;;;;;14.50;8.20;;;;;;;3.13;80.89;98434.52;134155;1266;108667;-78
2024/02/09 09:37:28;;;;;;;18.50;9.50;;;;;;;3.11;81.16;98428.92;134138;1265;105757;-79
2024/02/09 09:40:36;;;;;;;14.50;8.40;;;;;;;3.08;81.09;98428.90;134168;1265;107237;-78
2024/02/09 09:43:42;;;;;;;13.70;8.30;;;;;;;3.03;81.01;98435.38;134147;1265;109199;-78
2024/02/09 09:46:49;;;;;;;11.30;6.00;;;;;;;3.02;81.30;98438.80;134131;1265;108712;-78
2024/02/09 09:49:56;;;;;;;14.80;7.90;;;;;;;2.99;81.27;98441.59;134146;1265;107690;-78
2024/02/09 09:53:05;;;;;;;22.20;11.60;;;;;;;3.00;81.32;98431.95;134152;1266;107835;-78
2024/02/09 09:56:11;;;;;;;21.00;11.70;;;;;;;3.05;81.15;98432.14;134204;1263;108406;-78
2024/02/09 09:59:18;;;;;;;16.50;8.60;;;;;;;3.06;81.25;98430.36;134238;1264;108688;-78
2024/02/09 10:02:24;;;;;;;12.40;7.40;;;;;;;3.06;81.32;98432.80;134233;1264;107906;-78
2024/02/09 10:05:30;;;;;;;13.90;8.90;;;;;;;3.05;81.48;98435.19;134230;1263;108595;-78
2024/02/09 10:08:36;;;;;;;26.20;13.30;;;;;;;3.04;81.22;98439.64;134232;1263;108389;-78
2024/02/09 10:11:45;;;;;;;26.20;12.30;;;;;;;3.02;81.43;98442.67;134198;1264;108567;-78
2024/02/09 10:14:50;;;;;;;28.90;13.10;;;;;;;2.97;81.48;98444.38;134209;1263;107872;-78
2024/02/09 10:17:56;;;;;;;20.40;9.80;;;;;;;2.97;81.41;98443.68;134247;1264;107373;-78
2024/02/09 10:21:02;;;;;;;34.70;15.10;;;;;;;2.99;81.64;98439.42;134211;1264;107588;-78
2024/02/09 10:24:09;;;;;;;24.70;12.10;;;;;;;3.03;81.49;98439.64;134224;1264;108722;-78
2024/02/09 10:27:15;;;;;;;53.40;22.40;;;;;;;3.07;81.52;98428.36;134199;1264;106354;-78
2024/02/09 10:30:21;;;;;;;31.80;17.60;;;;;;;3.06;81.58;98426.09;134225;1263;107828;-78
2024/02/09 10:33:27;;;;;;;28.00;13.60;;;;;;;3.11;81.51;98420.20;134238;1264;107391;-78
2024/02/09 10:36:32;;;;;;;27.10;13.80;;;;;;;3.13;81.53;98417.45;134286;1263;108768;-78
2024/02/09 10:39:38;;;;;;;30.50;15.20;;;;;;;3.14;81.58;98405.44;134303;1263;108644;-78
2024/02/09 10:42:45;;;;;;;22.00;10.40;;;;;;;3.10;81.39;98398.16;134264;1263;107870;-78
2024/02/09 10:45:51;;;;;;;19.40;10.90;;;;;;;3.11;81.64;98389.40;134255;1264;108557;-78
2024/02/09 10:48:58;;;;;;;24.10;12.90;;;;;;;3.13;81.56;98380.48;134292;1263;107071;-79
2024/02/09 10:52:05;;;;;;;18.20;10.10;;;;;;;3.18;81.61;98381.89;134276;1263;106851;-78
2024/02/09 10:55:14;;;;;;;18.60;10.90;;;;;;;3.24;81.59;98373.72;134268;1264;106541;-78
2024/02/09 10:58:21;;;;;;;17.30;9.60;;;;;;;3.29;81.60;98370.43;134283;1263;106462;-78
2024/02/09 11:01:27;;;;;;;13.80;9.00;;;;;;;3.32;81.59;98364.70;134279;1264;107534;-79
2024/02/09 11:04:34;;;;;;;17.70;10.10;;;;;;;3.33;81.36;98351.42;134144;1266;107599;-78
2024/02/09 11:07:40;;;;;;;16.60;9.10;;;;;;;3.35;81.47;98354.73;134244;1263;107813;-78
2024/02/09 11:10:54;;;;;;;20.80;10.60;;;;;;;3.34;81.38;98348.87;134273;1263;108728;-78
2024/02/09 11:14:12;;;;;;;17.40;10.60;;;;;;;3.29;81.58;98349.81;134277;1264;107884;-78
2024/02/09 11:17:19;;;;;;;13.50;8.50;;;;;;;3.30;81.59;98351.40;134223;1263;108686;-78
2024/02/09 11:20:27;;;;;;;15.20;8.70;;;;;;;3.26;81.56;98350.55;134197;1264;107489;-78
2024/02/09 11:23:34;;;;;;;14.40;9.00;;;;;;;3.23;81.57;98352.77;134226;1263;106507;-78
2024/02/09 11:26:40;;;;;;;15.10;9.50;;;;;;;3.23;81.79;98352.84;134225;1263;107631;-79
2024/02/09 11:29:45;;;;;;;21.30;10.60;;;;;;;3.23;81.75;98348.35;134236;1263;108399;-78
2024/02/09 11:32:51;;;;;;;19.60;10.30;;;;;;;3.26;81.63;98340.84;134238;1263;108875;-78
2024/02/09 11:35:58;;;;;;;20.90;11.50;;;;;;;3.28;81.71;98332.19;134202;1263;108811;-79
2024/02/09 11:39:06;;;;;;;14.20;8.70;;;;;;;3.31;81.80;98331.01;134208;1263;109039;-79
2024/02/09 11:42:12;;;;;;;14.30;8.80;;;;;;;3.29;81.64;98324.97;134217;1264;107005;-78
2024/02/09 11:45:18;;;;;;;11.90;8.30;;;;;;;3.27;81.77;98323.02;134215;1264;108689;-78
2024/02/09 11:48:24;;;;;;;13.80;8.20;;;;;;;3.25;81.79;98318.32;134184;1264;106642;-78
2024/02/09 11:51:30;;;;;;;12.20;8.00;;;;;;;3.27;81.91;98319.54;134207;1264;106535;-78
2024/02/09 11:54:36;;;;;;;20.80;13.00;;;;;;;3.33;81.97;98315.40;134264;1263;107723;-78
2024/02/09 11:57:42;;;;;;;27.20;17.50;;;;;;;3.39;81.87;98319.06;134214;1264;108387;-78
2024/02/09 12:00:50;;;;;;;63.40;28.10;;;;;;;3.40;81.91;98321.02;134202;1264;107496;-79
2024/02/09 12:03:56;;;;;;;35.70;16.60;;;;;;;3.43;81.82;98325.46;134207;1264;107798;-78
2024/02/09 12:07:04;;;;;;;25.70;12.90;;;;;;;3.39;81.75;98330.66;134220;1264;108664;-78
2024/02/09 12:10:10;;;;;;;32.40;15.70;;;;;;;3.37;81.88;98328.31;134179;1264;107875;-78
2024/02/09 12:13:18;;;;;;;22.20;11.70;;;;;;;3.36;81.87;98327.52;134213;1263;108687;-79
2024/02/09 12:16:24;;;;;;;15.70;8.40;;;;;;;3.33;81.78;98333.00;134130;1263;110031;-79
2024/02/09 12:19:32;;;;;;;19.80;10.20;;;;;;;3.23;81.67;98332.23;134184;1264;108672;-79
2024/02/09 12:22:39;;;;;;;19.50;10.90;;;;;;;3.17;81.95;98324.94;134057;1264;109626;-78
2024/02/09 12:25:45;;;;;;;14.90;8.10;;;;;;;3.19;82.24;98320.64;134197;1264;107445;-78
2024/02/09 12:28:51;;;;;;;17.10;8.90;;;;;;;3.26;81.96;98312.75;134180;1263;105955;-78
2024/02/09 12:31:57;;;;;;;16.90;10.50;;;;;;;3.33;82.07;98311.75;134199;1264;108768;-78
2024/02/09 12:35:02;;;;;;;13.50;8.30;;;;;;;3.40;82.18;98308.23;134275;1263;108415;-78
2024/02/09 12:38:08;;;;;;;17.60;11.10;;;;;;;3.39;81.90;98299.49;134198;1264;106243;-78
2024/02/09 12:41:17;;;;;;;22.20;14.20;;;;;;;3.37;82.02;98296.31;134233;1263;107530;-78
2024/02/09 12:44:27;;;;;;;13.30;8.60;;;;;;;3.32;82.12;98291.64;134136;1263;108979;-78
2024/02/09 12:47:33;;;;;;;15.00;8.80;;;;;;;3.27;82.29;98294.77;134244;1263;107173;-78
2024/02/09 12:50:52;;;;;;;15.60;9.10;;;;;;;3.19;82.36;98289.22;134218;1263;107669;-79
2024/02/09 12:53:59;;;;;;;15.10;9.00;;;;;;;3.17;82.41;98275.23;134103;1263;106619;-78
2024/02/09 12:57:06;;;;;;;15.00;8.70;;;;;;;3.16;82.49;98263.14;134251;1263;108744;-78
2024/02/09 13:00:15;;;;;;;13.20;7.90;;;;;;;3.21;82.60;98267.71;134208;1263;108405;-78
2024/02/09 13:03:22;;;;;;;19.50;10.20;;;;;;;3.27;82.45;98270.52;134225;1263;107667;-78
2024/02/09 13:06:28;;;;;;;25.10;11.90;;;;;;;3.28;82.48;98269.34;134273;1263;105685;-79
2024/02/09 13:09:44;;;;;;;18.10;9.10;;;;;;;3.24;82.34;98260.14;134213;1263;106988;-80
2024/02/09 13:12:53;;;;;;;24.00;11.80;;;;;;;3.19;82.38;98252.19;134178;1264;107397;-78
2024/02/09 13:16:00;;;;;;;25.90;12.10;;;;;;;3.11;82.54;98244.17;134235;1264;107538;-79
2024/02/09 13:19:11;;;;;;;20.70;10.40;;;;;;;3.08;82.59;98232.69;134116;1267;107684;-78
2024/02/09 13:22:16;;;;;;;22.60;11.40;;;;;;;3.06;82.67;98231.80;134224;1263;107809;-78
2024/02/09 13:25:23;;;;;;;18.10;8.50;;;;;;;3.05;82.81;98227.33;134240;1263;107854;-78
2024/02/09 13:28:29;;;;;;;27.40;12.90;;;;;;;3.05;82.93;98221.60;134263;1263;108539;-78
2024/02/09 13:31:38;;;;;;;21.30;11.00;;;;;;;3.06;83.01;98221.84;134276;1263;107430;-78
2024/02/09 13:34:44;;;;;;;24.20;12.10;;;;;;;3.07;82.97;98224.73;134130;1267;107703;-78
2024/02/09 13:37:49;;;;;;;16.90;9.40;;;;;;;3.04;83.02;98219.20;134150;1267;106360;-78
2024/02/09 13:40:55;;;;;;;21.70;11.40;;;;;;;3.06;83.03;98205.81;134159;1267;107915;-78
2024/02/09 13:44:01;;;;;;;27.30;13.70;;;;;;;3.01;82.98;98208.66;134135;1265;106408;-78
2024/02/09 13:47:06;;;;;;;18.90;10.90;;;;;;;2.99;83.14;98216.59;134126;1266;108688;-78
2024/02/09 13:50:14;;;;;;;17.90;10.70;;;;;;;2.98;83.11;98212.09;134171;1264;108686;-78
2024/02/09 13:53:20;;;;;;;24.00;13.10;;;;;;;2.97;83.15;98201.89;134211;1263;106107;-78
2024/02/09 13:56:26;;;;;;;38.20;21.30;;;;;;;2.96;83.46;98203.73;134208;1263;107976;-78
2024/02/09 13:59:31;;;;;;;18.80;11.10;;;;;;;2.95;83.44;98202.22;134257;1263;106437;-78
2024/02/09 14:02:37;;;;;;;21.90;13.80;;;;;;;2.92;83.50;98197.75;134213;1266;106383;-78
2024/02/09 14:05:42;;;;;;;20.80;11.60;;;;;;;2.91;83.68;98195.90;134155;1265;106209;-78
2024/02/09 14:08:49;;;;;;;21.70;11.90;;;;;;;2.88;83.55;98198.90;134161;1267;109484;-78
2024/02/09 14:11:55;;;;;;;33.10;16.60;;;;;;;2.81;83.63;98193.76;134161;1263;106326;-78
2024/02/09 14:15:01;;;;;;;23.20;12.40;;;;;;;2.79;83.61;98189.09;134247;1263;108602;-78
2024/02/09 14:18:09;;;;;;;19.20;10.80;;;;;;;2.73;83.76;98198.45;134246;1263;108883;-78
2024/02/09 14:21:15;;;;;;;16.20;9.70;;;;;;;2.69;83.82;98193.70;134191;1264;108593;-78
2024/02/09 14:24:21;;;;;;;19.50;10.70;;;;;;;2.71;84.09;98185.80;134225;1263;106967;-78
2024/02/09 14:27:29;;;;;;;22.50;11.20;;;;;;;2.73;83.88;98179.45;134212;1263;107677;-78
2024/02/09 14:30:35;;;;;;;27.70;13.80;;;;;;;2.75;83.86;98182.63;134231;1263;108539;-78
2024/02/09 14:33:42;;;;;;;25.70;12.40;;;;;;;2.73;83.86;98175.05;134206;1263;108592;-78
2024/02/09 14:36:47;;;;;;;27.60;14.00;;;;;;;2.67;83.97;98173.55;134195;1263;106157;-78
2024/02/09 14:39:53;;;;;;;30.50;13.00;;;;;;;2.64;84.02;98160.86;134204;1264;108724;-78
2024/02/09 14:42:59;;;;;;;16.80;8.90;;;;;;;2.62;84.34;98157.75;134214;1263;108761;-78
2024/02/09 14:46:05;;;;;;;19.70;9.80;;;;;;;2.66;84.25;98158.63;134208;1263;108632;-78
2024/02/09 14:49:11;;;;;;;18.90;9.80;;;;;;;2.70;84.23;98156.19;134205;1263;108758;-78
2024/02/09 14:52:17;;;;;;;21.60;11.90;;;;;;;2.73;84.14;98157.49;134239;1263;106393;-77
2024/02/09 14:55:23;;;;;;;32.20;15.30;;;;;;;2.74;84.18;98160.56;134213;1263;107707;-78
2024/02/09 14:58:29;;;;;;;20.10;10.10;;;;;;;2.75;84.23;98153.66;134214;1264;106192;-78
2024/02/09 15:01:37;;;;;;;20.20;9.60;;;;;;;2.71;84.21;98159.66;134218;1263;106589;-78
2024/02/09 15:04:43;;;;;;;22.10;11.30;;;;;;;2.69;84.25;98155.75;134177;1263;108343;-78
2024/02/09 15:07:49;;;;;;;16.10;8.50;;;;;;;2.73;84.57;98152.63;134182;1263;107923;-78
2024/02/09 15:10:55;;;;;;;17.60;9.30;;;;;;;2.78;84.42;98149.63;134224;1263;109428;-78
2024/02/09 15:14:00;;;;;;;20.00;10.40;;;;;;;2.84;84.25;98145.88;134205;1263;108611;-78
2024/02/09 15:17:06;;;;;;;18.20;10.20;;;;;;;2.88;84.33;98148.42;134241;1263;108442;-79
2024/02/09 15:20:13;;;;;;;12.00;8.40;;;;;;;2.90;84.40;98146.52;134226;1263;106060;-78
2024/02/09 15:23:19;;;;;;;10.40;7.00;;;;;;;2.89;84.34;98146.80;134218;1264;108599;-78
2024/02/09 15:26:26;;;;;;;13.30;8.20;;;;;;;2.88;84.45;98148.44;134259;1263;107453;-78
2024/02/09 15:29:32;;;;;;;11.70;8.10;;;;;;;2.86;84.40;98150.48;134214;1263;108603;-78
2024/02/09 15:32:38;;;;;;;12.80;8.80;;;;;;;2.81;84.53;98145.73;134225;1263;108718;-78
2024/02/09 15:35:44;;;;;;;12.60;7.90;;;;;;;2.76;84.67;98143.69;134233;1263;107682;-78
2024/02/09 15:38:50;;;;;;;10.70;7.40;;;;;;;2.71;84.72;98144.34;134170;1263;106421;-78
2024/02/09 15:41:59;;;;;;;11.60;7.10;;;;;;;2.69;84.75;98141.96;134217;1263;107358;-78
2024/02/09 15:45:07;;;;;;;12.20;7.10;;;;;;;2.75;84.87;98138.75;134190;1263;106596;-78
2024/02/09 15:48:13;;;;;;;11.80;7.00;;;;;;;2.79;84.83;98132.86;134049;1264;175782;-78
2024/02/09 15:51:23;;;;;;;14.40;8.40;;;;;;;2.85;84.92;98133.04;134209;1263;107209;-78
2024/02/09 15:54:30;;;;;;;15.30;8.50;;;;;;;2.88;84.85;98126.67;134196;1263;107585;-79
2024/02/09 15:57:37;;;;;;;18.60;10.50;;;;;;;2.88;84.82;98130.19;134212;1263;105566;-78
2024/02/09 16:00:43;;;;;;;17.00;9.00;;;;;;;2.86;84.87;98141.44;134221;1263;108611;-78
2024/02/09 16:03:50;;;;;;;16.80;9.90;;;;;;;2.85;84.90;98141.08;134222;1263;106857;-78